Time;durP1;ratioP1;P1;durP2;ratioP2;P2;SDS_P1;SDS_P2;PMS_P1;PMS_P2;Temp;Humidity;BMP_temperature;BMP_pressure;BME280_temperature;BME280_humidity;BME280_pressure;Samples;Min_cycle;Max_cycle;Signal;HPM_P1;HPM_P2
2023/02/18 05:00:49;;;;;;;6.95;0.43;;;7.00;99.90;;;;;;5703548;23;20239;-69
2023/02/18 05:03:16;;;;;;;1.52;1.10;;;7.00;99.90;;;;;;4929411;29;20206;-69
2023/02/18 05:05:44;;;;;;;0.85;0.68;;;7.00;99.90;;;;;;4932684;29;20209;-69
2023/02/18 05:08:11;;;;;;;0.20;0.20;;;7.00;99.90;;;;;;4931508;29;20928;-69
2023/02/18 05:10:38;;;;;;;0.70;0.70;;;7.00;99.90;;;;;;4934310;29;20597;-69
2023/02/18 05:13:05;;;;;;;1.95;0.40;;;7.00;99.90;;;;;;4929792;29;20207;-69
2023/02/18 05:15:32;;;;;;;0.60;0.60;;;7.00;99.90;;;;;;4928772;29;20212;-69
2023/02/18 05:18:00;;;;;;;0.20;0.20;;;7.00;99.90;;;;;;4932001;29;20213;-69
2023/02/18 05:20:27;;;;;;;0.20;0.20;;;7.00;99.90;;;;;;4923349;29;20582;-69
2023/02/18 05:22:54;;;;;;;0.68;0.68;;;7.00;99.90;;;;;;4931496;29;20612;-69
2023/02/18 05:25:20;;;;;;;0.45;0.45;;;7.00;99.90;;;;;;4932940;29;20800;-69
2023/02/18 05:27:47;;;;;;;0.35;0.32;;;6.90;99.90;;;;;;4928693;29;20215;-69
2023/02/18 05:30:14;;;;;;;0.63;0.47;;;6.90;99.90;;;;;;4931123;29;20599;-69
2023/02/18 05:32:41;;;;;;;0.25;0.25;;;7.00;99.90;;;;;;4929904;29;20218;-68
2023/02/18 05:35:10;;;;;;;18.20;1.50;;;6.90;99.90;;;;;;4928003;29;20308;-68
2023/02/18 05:37:37;;;;;;;0.20;0.20;;;6.90;99.90;;;;;;4928698;29;20551;-68
2023/02/18 05:40:05;;;;;;;1.10;0.20;;;6.90;99.90;;;;;;4931236;29;20229;-68
2023/02/18 05:42:32;;;;;;;0.10;0.10;;;6.90;99.90;;;;;;4931732;29;20231;-68
2023/02/18 05:44:58;;;;;;;0.17;0.17;;;6.90;99.90;;;;;;4929906;29;20212;-69
2023/02/18 05:47:25;;;;;;;0.60;0.30;;;6.90;99.90;;;;;;4931903;29;20235;-69
2023/02/18 05:49:52;;;;;;;0.57;0.50;;;6.90;99.90;;;;;;4929004;29;20240;-68
2023/02/18 05:52:20;;;;;;;1.95;0.43;;;6.90;99.90;;;;;;4931025;29;20227;-68
2023/02/18 05:54:47;;;;;;;0.28;0.28;;;6.90;99.90;;;;;;4924644;29;20254;-68
2023/02/18 05:57:15;;;;;;;8.13;0.60;;;6.90;99.90;;;;;;4932852;29;20580;-68
2023/02/18 05:59:42;;;;;;;0.47;0.47;;;6.90;99.90;;;;;;4926278;29;20214;-68
2023/02/18 06:02:09;;;;;;;0.60;0.60;;;6.90;99.90;;;;;;4931334;29;20237;-68
2023/02/18 06:04:35;;;;;;;1.40;0.55;;;6.90;99.90;;;;;;4928494;29;20286;-68
2023/02/18 06:07:02;;;;;;;0.60;0.60;;;6.80;99.90;;;;;;4931485;29;20224;-68
2023/02/18 06:09:30;;;;;;;0.20;0.20;;;6.90;99.90;;;;;;4929681;29;20229;-68
2023/02/18 06:11:57;;;;;;;2.95;0.85;;;6.80;99.90;;;;;;4931993;29;20227;-68
2023/02/18 06:14:24;;;;;;;8.65;2.03;;;6.80;99.90;;;;;;4930634;29;20212;-68
2023/02/18 06:16:50;;;;;;;0.10;0.10;;;6.80;99.90;;;;;;4930952;29;20243;-67
2023/02/18 06:19:17;;;;;;;0.77;0.77;;;6.80;99.90;;;;;;4926814;29;20250;-69
2023/02/18 06:21:44;;;;;;;0.77;0.77;;;6.70;99.90;;;;;;4930149;29;20279;-68
2023/02/18 06:24:11;;;;;;;1.75;0.30;;;6.70;99.90;;;;;;4931333;29;20223;-69
2023/02/18 06:26:39;;;;;;;0.43;0.43;;;6.70;99.90;;;;;;4928668;29;20209;-68
2023/02/18 06:29:05;;;;;;;8.90;2.03;;;6.70;99.90;;;;;;4931159;29;20229;-68
2023/02/18 06:31:32;;;;;;;2.60;0.60;;;6.70;99.90;;;;;;4931220;29;20245;-68
2023/02/18 06:33:59;;;;;;;2.38;1.15;;;6.60;99.90;;;;;;4929182;29;20206;-69
2023/02/18 06:36:25;;;;;;;0.60;0.60;;;6.60;99.90;;;;;;4923107;29;20629;-68
2023/02/18 06:38:53;;;;;;;0.77;0.60;;;6.60;99.90;;;;;;4929387;29;20209;-68
2023/02/18 06:41:20;;;;;;;0.57;0.43;;;6.60;99.90;;;;;;4931637;29;20222;-68
2023/02/18 06:43:48;;;;;;;1.30;1.15;;;6.60;99.90;;;;;;4928474;29;20217;-68
2023/02/18 06:46:14;;;;;;;0.40;0.40;;;6.60;99.90;;;;;;4930164;29;20678;-68
2023/02/18 06:48:41;;;;;;;1.35;0.60;;;6.60;99.90;;;;;;4929915;29;20228;-68
2023/02/18 06:51:08;;;;;;;2.25;0.50;;;6.60;99.90;;;;;;4925438;29;20744;-68
2023/02/18 06:53:35;;;;;;;0.57;0.57;;;6.50;99.90;;;;;;4933084;29;20214;-68
2023/02/18 06:56:02;;;;;;;1.52;1.52;;;6.60;99.90;;;;;;4928557;29;20211;-68
2023/02/18 06:58:28;;;;;;;0.38;0.38;;;6.60;99.90;;;;;;4931638;29;20215;-68
2023/02/18 07:00:57;;;;;;;0.22;0.22;;;6.50;99.90;;;;;;4926928;29;20286;-67
2023/02/18 07:03:23;;;;;;;6.38;0.63;;;6.50;99.90;;;;;;4930500;28;20214;-68
2023/02/18 07:05:50;;;;;;;4.78;0.47;;;6.50;99.90;;;;;;4925153;29;20220;-68
2023/02/18 07:08:18;;;;;;;2.15;1.52;;;6.50;99.90;;;;;;4927616;29;20219;-68
2023/02/18 07:10:45;;;;;;;1.85;0.65;;;6.60;99.90;;;;;;4926888;29;20237;-68
2023/02/18 07:13:12;;;;;;;0.30;0.30;;;6.60;99.90;;;;;;4929143;29;20599;-67
2023/02/18 07:15:39;;;;;;;0.20;0.20;;;6.60;99.90;;;;;;4930688;29;20208;-69
2023/02/18 07:18:07;;;;;;;0.40;0.40;;;6.60;99.90;;;;;;4928261;29;20280;-68
2023/02/18 07:20:34;;;;;;;0.50;0.50;;;6.60;99.90;;;;;;4934489;29;20231;-68
2023/02/18 07:23:01;;;;;;;2.67;0.65;;;6.60;99.90;;;;;;4935487;29;20212;-68
2023/02/18 07:25:28;;;;;;;1.38;0.73;;;6.60;99.90;;;;;;4931756;29;20223;-67
2023/02/18 07:27:54;;;;;;;1.15;1.15;;;6.60;99.90;;;;;;4932890;29;20220;-68
2023/02/18 07:30:22;;;;;;;0.10;0.10;;;6.60;99.90;;;;;;4930221;29;20626;-68
2023/02/18 07:32:48;;;;;;;0.52;0.40;;;6.60;99.90;;;;;;4931114;29;20214;-68
2023/02/18 07:35:17;;;;;;;4.22;0.73;;;6.60;99.90;;;;;;4922399;29;20220;-68
2023/02/18 07:37:45;;;;;;;4.30;1.70;;;6.60;99.90;;;;;;4924475;29;20223;-68
2023/02/18 07:40:13;;;;;;;3.05;0.68;;;6.60;99.90;;;;;;4927759;29;20792;-68
2023/02/18 07:42:40;;;;;;;0.82;0.50;;;6.60;99.90;;;;;;4928754;29;20207;-68
2023/02/18 07:45:07;;;;;;;0.47;0.47;;;6.60;99.90;;;;;;4929662;29;20551;-68
2023/02/18 07:47:35;;;;;;;3.83;0.75;;;6.60;99.90;;;;;;4930277;29;20336;-68
2023/02/18 07:50:01;;;;;;;2.15;0.75;;;6.60;99.90;;;;;;4929990;29;20835;-67
2023/02/18 07:52:29;;;;;;;3.38;1.15;;;6.70;99.90;;;;;;4932893;29;20231;-67
2023/02/18 07:54:56;;;;;;;2.50;0.80;;;6.70;99.90;;;;;;4916692;29;20229;-67
2023/02/18 07:57:23;;;;;;;0.47;0.47;;;6.70;99.90;;;;;;4917549;29;20212;-68
2023/02/18 07:59:49;;;;;;;0.70;0.70;;;6.70;99.90;;;;;;4931056;29;20820;-68
2023/02/18 08:02:19;;;;;;;0.60;0.60;;;6.80;99.90;;;;;;4921761;29;20239;-68
2023/02/18 08:04:47;;;;;;;0.90;0.60;;;6.80;99.90;;;;;;4929540;29;20220;-67
2023/02/18 08:07:14;;;;;;;5.40;0.77;;;6.80;99.90;;;;;;4925850;29;20224;-68
2023/02/18 08:09:43;;;;;;;0.68;0.68;;;6.80;99.90;;;;;;4931340;29;20561;-67
2023/02/18 08:12:10;;;;;;;0.73;0.73;;;6.80;99.90;;;;;;4930453;29;20232;-67
2023/02/18 08:14:36;;;;;;;3.17;1.52;;;6.90;99.90;;;;;;4928307;29;20212;-67
2023/02/18 08:17:03;;;;;;;1.73;1.40;;;6.90;99.90;;;;;;4929122;29;20210;-67
2023/02/18 08:19:30;;;;;;;16.25;1.08;;;6.90;99.90;;;;;;4934949;29;20650;-67
2023/02/18 08:22:00;;;;;;;2.53;1.42;;;7.00;99.90;;;;;;4934508;29;20235;-67
2023/02/18 08:24:27;;;;;;;0.60;0.60;;;6.90;99.90;;;;;;4935495;29;20204;-67
2023/02/18 08:26:55;;;;;;;3.97;0.70;;;6.90;99.90;;;;;;4932357;29;20211;-69
2023/02/18 08:29:22;;;;;;;1.00;0.80;;;6.90;99.90;;;;;;4931006;29;20205;-67
2023/02/18 08:31:48;;;;;;;1.23;1.23;;;6.90;99.90;;;;;;4925228;29;20232;-68
2023/02/18 08:34:15;;;;;;;1.75;1.25;;;6.90;99.90;;;;;;4930760;29;20211;-68
2023/02/18 08:36:42;;;;;;;6.72;0.80;;;7.00;99.90;;;;;;4934167;29;20249;-68
2023/02/18 08:39:09;;;;;;;0.40;0.40;;;7.00;99.90;;;;;;4933950;29;20213;-67
2023/02/18 08:41:35;;;;;;;7.60;0.77;;;7.00;99.90;;;;;;4920606;29;20229;-67
2023/02/18 08:44:03;;;;;;;0.73;0.73;;;7.00;99.90;;;;;;4930250;29;20216;-67
2023/02/18 08:46:30;;;;;;;0.73;0.63;;;7.00;99.90;;;;;;4931162;29;20220;-67
2023/02/18 08:48:57;;;;;;;4.93;1.90;;;7.10;99.90;;;;;;4932946;29;20219;-67
2023/02/18 08:51:25;;;;;;;6.88;3.20;;;7.00;99.90;;;;;;4933725;29;20234;-66
2023/02/18 08:53:51;;;;;;;32.67;23.30;;;7.00;99.90;;;;;;4932775;29;20228;-67
2023/02/18 08:56:18;;;;;;;4.53;4.20;;;7.00;99.90;;;;;;4929592;29;20243;-68
2023/02/18 08:58:45;;;;;;;10.35;4.50;;;7.00;99.90;;;;;;4930901;29;20219;-67
2023/02/18 09:01:13;;;;;;;15.68;8.60;;;7.00;99.90;;;;;;4933419;29;20243;-67
2023/02/18 09:03:41;;;;;;;6.97;2.95;;;7.00;99.90;;;;;;4929772;29;20213;-68
2023/02/18 09:06:08;;;;;;;4.43;4.03;;;7.00;99.90;;;;;;4934091;29;20215;-68
2023/02/18 09:08:35;;;;;;;6.50;4.90;;;7.00;99.90;;;;;;4931257;29;20215;-68
2023/02/18 09:11:04;;;;;;;2.28;2.08;;;7.00;99.90;;;;;;4931345;29;20233;-68
2023/02/18 09:13:31;;;;;;;1.95;0.88;;;7.00;99.90;;;;;;4930802;29;20212;-68
2023/02/18 09:16:00;;;;;;;0.73;0.73;;;7.00;99.90;;;;;;4926897;29;20216;-67
2023/02/18 09:18:28;;;;;;;8.68;2.28;;;7.00;99.90;;;;;;4932037;29;20218;-67
2023/02/18 09:21:00;;;;;;;1.48;1.00;;;7.00;99.90;;;;;;4934104;29;20634;-67
2023/02/18 09:23:28;;;;;;;0.95;0.88;;;7.00;99.90;;;;;;4933031;29;20208;-68
2023/02/18 09:25:55;;;;;;;1.73;1.63;;;7.00;99.90;;;;;;4930594;29;20210;-68
2023/02/18 09:28:22;;;;;;;2.78;1.05;;;7.00;99.90;;;;;;4930477;29;20202;-68
2023/02/18 09:30:50;;;;;;;1.10;0.95;;;7.10;99.90;;;;;;4930943;29;20402;-68
2023/02/18 09:33:17;;;;;;;1.58;1.58;;;7.10;99.90;;;;;;4918354;29;20231;-68
2023/02/18 09:35:46;;;;;;;3.40;2.80;;;7.10;99.90;;;;;;4929164;29;20223;-67
2023/02/18 09:38:15;;;;;;;3.80;2.85;;;7.10;99.90;;;;;;4931757;29;20257;-66
2023/02/18 09:40:45;;;;;;;3.17;3.08;;;7.10;99.90;;;;;;4931974;29;20280;-68
2023/02/18 09:43:22;;;;;;;1.65;1.02;;;7.10;99.90;;;;;;4932935;29;20207;-68
2023/02/18 09:45:51;;;;;;;0.95;0.95;;;7.20;99.90;;;;;;4931885;29;20583;-68
2023/02/18 09:48:18;;;;;;;0.60;0.60;;;7.20;99.90;;;;;;4922363;29;20211;-68
2023/02/18 09:50:52;;;;;;;4.03;0.50;;;7.20;99.90;;;;;;4931020;29;20321;-68
2023/02/18 09:53:20;;;;;;;4.15;1.23;;;7.20;99.90;;;;;;4916308;29;20213;-69
2023/02/18 09:55:48;;;;;;;1.52;1.48;;;7.30;99.90;;;;;;4928675;29;20233;-68
2023/02/18 09:58:18;;;;;;;6.78;1.08;;;7.20;99.90;;;;;;4931337;29;20213;-67
2023/02/18 10:00:47;;;;;;;3.15;1.73;;;7.20;99.90;;;;;;4932562;29;20307;-67
2023/02/18 10:03:16;;;;;;;1.73;1.05;;;7.20;99.90;;;;;;4934243;29;20212;-68
2023/02/18 10:05:57;;;;;;;3.50;1.00;;;7.30;99.90;;;;;;4933680;29;20219;-68
2023/02/18 10:08:27;;;;;;;1.90;1.77;;;7.30;99.90;;;;;;4935505;29;20205;-68
2023/02/18 10:10:54;;;;;;;0.30;0.30;;;7.30;99.90;;;;;;4933593;29;20245;-68
2023/02/18 10:13:23;;;;;;;3.38;2.22;;;7.30;99.90;;;;;;4939288;29;20213;-68
2023/02/18 10:15:51;;;;;;;1.70;1.70;;;7.40;99.90;;;;;;4946031;29;20219;-67
2023/02/18 10:18:26;;;;;;;2.30;2.20;;;7.40;99.90;;;;;;4949761;29;20194;-68
2023/02/18 10:21:04;;;;;;;0.85;0.80;;;7.50;99.90;;;;;;4937117;29;20232;-69
2023/02/18 10:23:33;;;;;;;4.20;3.80;;;7.50;99.90;;;;;;4940900;29;20266;-69
2023/02/18 10:26:04;;;;;;;1.92;1.83;;;7.60;99.90;;;;;;4930294;29;20209;-67
2023/02/18 10:28:32;;;;;;;0.75;0.75;;;7.70;99.90;;;;;;4929803;29;20201;-69
2023/02/18 10:31:03;;;;;;;1.95;1.55;;;7.70;99.90;;;;;;4925591;29;20233;-67
2023/02/18 10:33:35;;;;;;;0.52;0.52;;;7.80;99.90;;;;;;4935128;29;20209;-67
2023/02/18 10:36:22;;;;;;;1.23;1.20;;;7.90;99.90;;;;;;4933397;29;20219;-67
2023/02/18 10:39:14;;;;;;;0.30;0.30;;;8.00;99.90;;;;;;4931141;28;20204;-67
2023/02/18 10:41:51;;;;;;;0.65;0.65;;;8.20;99.90;;;;;;4921000;29;20248;-68
2023/02/18 10:44:30;;;;;;;1.30;1.20;;;8.30;99.90;;;;;;4925851;29;20622;-68
2023/02/18 10:47:05;;;;;;;0.90;0.90;;;8.50;99.90;;;;;;4930522;29;20224;-68
2023/02/18 10:49:51;;;;;;;0.55;0.55;;;8.60;99.90;;;;;;4928297;29;20241;-70
2023/02/18 10:52:19;;;;;;;0.70;0.70;;;8.80;99.90;;;;;;4925605;29;20290;-68
2023/02/18 10:54:53;;;;;;;0.30;0.30;;;8.90;99.90;;;;;;4927709;29;20210;-69
2023/02/18 10:57:21;;;;;;;0.73;0.73;;;9.10;99.90;;;;;;4932566;29;20549;-67
2023/02/18 10:59:57;;;;;;;0.35;0.35;;;9.30;99.90;;;;;;4934255;29;20217;-67
2023/02/18 11:02:28;;;;;;;0.77;0.77;;;9.40;99.90;;;;;;4927583;29;20229;-68
2023/02/18 11:04:56;;;;;;;0.52;0.50;;;9.50;99.90;;;;;;4935310;29;20286;-68
2023/02/18 11:07:29;;;;;;;0.80;0.80;;;9.60;99.90;;;;;;4935984;29;20326;-68
2023/02/18 11:09:58;;;;;;;4.57;0.70;;;9.70;99.90;;;;;;4931213;29;20207;-68
2023/02/18 11:12:30;;;;;;;0.60;0.60;;;9.80;99.90;;;;;;4931741;29;20245;-68
2023/02/18 11:15:19;;;;;;;1.23;0.82;;;9.80;99.90;;;;;;4934393;29;20344;-68
2023/02/18 11:17:47;;;;;;;0.20;0.20;;;9.90;99.90;;;;;;4936780;29;20199;-68
2023/02/18 11:20:30;;;;;;;0.68;0.68;;;10.00;99.90;;;;;;4956768;23;20233;-67
2023/02/18 11:23:13;;;;;;;3.05;1.42;;;10.00;99.90;;;;;;4922656;29;20565;-67
2023/02/18 11:25:41;;;;;;;0.30;0.30;;;10.10;99.90;;;;;;4936553;29;20205;-67
2023/02/18 11:28:29;;;;;;;0.40;0.40;;;10.10;99.90;;;;;;4934247;28;20239;-68
2023/02/18 11:30:58;;;;;;;1.02;0.90;;;10.10;99.90;;;;;;4933907;29;20269;-68
2023/02/18 11:33:33;;;;;;;0.40;0.40;;;10.10;99.90;;;;;;4934145;29;20623;-68
2023/02/18 11:36:05;;;;;;;0.50;0.50;;;10.20;99.90;;;;;;4935229;29;20269;-68
2023/02/18 11:38:38;;;;;;;0.40;0.40;;;10.20;99.90;;;;;;4929994;29;20675;-68
2023/02/18 11:41:08;;;;;;;0.50;0.50;;;10.30;99.90;;;;;;4931720;29;20289;-68
2023/02/18 11:43:35;;;;;;;0.30;0.30;;;10.30;99.90;;;;;;4933547;29;20211;-68
2023/02/18 11:46:09;;;;;;;0.47;0.47;;;10.30;99.90;;;;;;4934253;29;20207;-68
2023/02/18 11:48:36;;;;;;;0.30;0.30;;;10.30;99.90;;;;;;4932100;29;20223;-68
2023/02/18 11:51:04;;;;;;;0.35;0.35;;;10.20;99.90;;;;;;4929598;29;20335;-68
2023/02/18 11:53:34;;;;;;;0.30;0.20;;;10.20;99.90;;;;;;4935002;29;20210;-67
2023/02/18 11:56:05;;;;;;;0.68;0.68;;;10.20;99.90;;;;;;4932987;29;20209;-68
2023/02/18 11:58:38;;;;;;;0.65;0.50;;;10.20;99.90;;;;;;4934186;29;20276;-68
2023/02/18 12:01:12;;;;;;;0.45;0.45;;;10.30;99.90;;;;;;4933247;29;20226;-68
2023/02/18 12:03:44;;;;;;;0.45;0.45;;;10.30;99.90;;;;;;4928637;29;20242;-68
2023/02/18 12:06:15;;;;;;;0.35;0.35;;;10.30;99.90;;;;;;4931662;29;20203;-68
2023/02/18 12:08:49;;;;;;;0.50;0.50;;;10.30;99.90;;;;;;4933902;29;20210;-68
2023/02/18 12:11:27;;;;;;;0.47;0.32;;;10.30;99.90;;;;;;4932614;29;20668;-67
2023/02/18 12:13:56;;;;;;;0.55;0.55;;;10.30;99.90;;;;;;4933975;29;20209;-68
2023/02/18 12:16:32;;;;;;;0.73;0.73;;;10.30;99.90;;;;;;4931266;29;20202;-68
2023/02/18 12:19:13;;;;;;;0.38;0.38;;;10.30;99.90;;;;;;4931386;29;20248;-68
2023/02/18 12:21:53;;;;;;;1.08;1.08;;;10.30;99.90;;;;;;4932947;29;20233;-68
2023/02/18 12:24:35;;;;;;;0.47;0.47;;;10.30;99.90;;;;;;4933851;29;20210;-68
2023/02/18 12:27:16;;;;;;;0.55;0.55;;;10.30;99.90;;;;;;4933345;29;20221;-68
2023/02/18 12:30:09;;;;;;;4.68;1.58;;;10.20;99.90;;;;;;4934060;29;20614;-68
2023/02/18 12:32:43;;;;;;;0.35;0.35;;;10.30;99.90;;;;;;4929073;29;20230;-68
2023/02/18 12:35:37;;;;;;;0.68;0.63;;;10.20;99.90;;;;;;4927203;29;20282;-68
2023/02/18 12:38:31;;;;;;;0.45;0.45;;;10.20;99.90;;;;;;4932943;29;20210;-68
2023/02/18 12:41:16;;;;;;;0.40;0.40;;;10.20;99.90;;;;;;4917051;29;20224;-68
2023/02/18 12:43:55;;;;;;;0.75;0.60;;;10.20;99.90;;;;;;4926982;29;20257;-68
2023/02/18 12:46:43;;;;;;;0.70;0.70;;;10.20;99.90;;;;;;4932621;29;20214;-68
2023/02/18 12:49:24;;;;;;;0.65;0.65;;;10.20;99.90;;;;;;4933880;29;20236;-68
2023/02/18 12:52:09;;;;;;;0.50;0.50;;;10.30;99.90;;;;;;4927458;29;20233;-68
2023/02/18 12:55:18;;;;;;;2.22;1.20;;;10.30;99.90;;;;;;4928609;29;20220;-68
2023/02/18 12:57:51;;;;;;;2.85;0.77;;;10.30;99.90;;;;;;4932406;29;20220;-68
2023/02/18 13:00:57;;;;;;;1.63;1.52;;;10.30;99.90;;;;;;4931930;29;20253;-68
2023/02/18 13:04:00;;;;;;;3.88;3.58;;;10.30;99.90;;;;;;4868428;29;20383;-68
2023/02/18 13:07:07;;;;;;;1.00;0.73;;;10.40;99.90;;;;;;4867831;29;20213;-68
2023/02/18 13:09:47;;;;;;;2.97;0.95;;;10.40;99.90;;;;;;4872600;29;20237;-68
2023/02/18 13:12:20;;;;;;;0.93;0.93;;;10.30;99.90;;;;;;4920978;28;20233;-68
2023/02/18 13:14:56;;;;;;;0.38;0.38;;;10.30;99.90;;;;;;4933591;29;20202;-68
2023/02/18 13:17:27;;;;;;;0.82;0.82;;;10.40;99.90;;;;;;4932847;29;20205;-68
2023/02/18 13:19:58;;;;;;;0.28;0.28;;;10.40;99.90;;;;;;4932882;29;20651;-68
2023/02/18 13:22:28;;;;;;;1.58;0.73;;;10.30;99.90;;;;;;4931681;29;20203;-68
2023/02/18 13:24:58;;;;;;;0.50;0.50;;;10.40;99.90;;;;;;4934046;29;20198;-68
2023/02/18 13:27:31;;;;;;;0.90;0.90;;;10.30;99.90;;;;;;4932338;29;20457;-68
2023/02/18 13:30:19;;;;;;;0.52;0.52;;;10.40;99.90;;;;;;4934489;29;20255;-68
2023/02/18 13:32:58;;;;;;;1.15;1.15;;;10.30;99.90;;;;;;4934039;29;20230;-69
2023/02/18 13:35:31;;;;;;;1.77;1.05;;;10.30;99.90;;;;;;4934286;29;20237;-69
2023/02/18 13:38:12;;;;;;;0.75;0.43;;;10.30;99.90;;;;;;4931790;29;20683;-69
2023/02/18 13:40:40;;;;;;;0.57;0.57;;;10.30;99.90;;;;;;4931383;29;20237;-69
2023/02/18 13:43:29;;;;;;;3.10;1.40;;;10.30;99.90;;;;;;4932396;29;20223;-69
2023/02/18 13:46:05;;;;;;;1.65;1.15;;;10.30;99.90;;;;;;4935647;29;20204;-69
2023/02/18 13:48:40;;;;;;;0.52;0.52;;;10.30;99.90;;;;;;4939078;29;20219;-69
2023/02/18 13:51:06;;;;;;;1.13;0.88;;;10.30;99.90;;;;;;4935496;29;20217;-68
2023/02/18 13:53:37;;;;;;;1.85;1.27;;;10.20;99.90;;;;;;4934516;29;20213;-68
2023/02/18 13:56:07;;;;;;;2.78;1.20;;;10.20;99.90;;;;;;4932286;29;20211;-68
2023/02/18 13:58:42;;;;;;;2.63;1.40;;;10.20;99.90;;;;;;4931483;29;20230;-68
2023/02/18 14:01:19;;;;;;;0.80;0.80;;;10.20;99.90;;;;;;4933561;29;20741;-68
2023/02/18 14:03:59;;;;;;;0.85;0.82;;;10.20;99.90;;;;;;4934519;29;20210;-68
2023/02/18 14:06:29;;;;;;;0.30;0.30;;;10.10;99.90;;;;;;4934077;29;20202;-68
2023/02/18 14:09:19;;;;;;;0.70;0.65;;;10.20;99.90;;;;;;4935470;29;20230;-68
2023/02/18 14:11:48;;;;;;;0.60;0.60;;;10.10;99.90;;;;;;4927565;28;20230;-69
2023/02/18 14:14:37;;;;;;;0.68;0.60;;;10.10;99.90;;;;;;4927264;29;20209;-69
2023/02/18 14:17:40;;;;;;;0.95;0.95;;;10.10;99.90;;;;;;4927177;29;20212;-68
2023/02/18 14:20:50;;;;;;;1.02;1.02;;;10.10;99.90;;;;;;4930000;29;20243;-68
2023/02/18 14:23:39;;;;;;;2.15;0.50;;;10.10;99.90;;;;;;4932965;29;20201;-68
2023/02/18 14:26:08;;;;;;;0.52;0.52;;;10.00;99.90;;;;;;4933168;29;20222;-69
2023/02/18 14:28:43;;;;;;;4.43;1.75;;;10.00;99.90;;;;;;4931007;29;20238;-69
2023/02/18 14:31:37;;;;;;;0.68;0.68;;;10.00;99.90;;;;;;4935260;29;20252;-69
2023/02/18 14:34:47;;;;;;;2.10;0.90;;;10.00;99.90;;;;;;4932006;29;20209;-69
2023/02/18 14:37:40;;;;;;;1.27;0.40;;;10.00;99.90;;;;;;4936939;29;20215;-69
2023/02/18 14:40:28;;;;;;;1.38;1.27;;;9.90;99.90;;;;;;4935233;29;20241;-69
2023/02/18 14:43:04;;;;;;;0.80;0.80;;;9.80;99.90;;;;;;4935706;29;20281;-68
2023/02/18 14:45:55;;;;;;;1.00;1.00;;;9.90;99.90;;;;;;4933713;29;20210;-68
2023/02/18 14:48:41;;;;;;;2.70;0.85;;;9.80;99.90;;;;;;4929698;29;20215;-68
2023/02/18 14:51:09;;;;;;;0.60;0.60;;;9.80;99.90;;;;;;4934427;29;20209;-68
2023/02/18 14:53:42;;;;;;;1.77;0.85;;;9.70;99.90;;;;;;4939865;29;20213;-68
2023/02/18 14:56:12;;;;;;;2.05;1.20;;;9.70;99.90;;;;;;4929750;29;20597;-69
2023/02/18 14:58:44;;;;;;;2.83;1.85;;;9.70;99.90;;;;;;4935500;29;20237;-69
2023/02/18 15:01:18;;;;;;;4.88;1.58;;;9.70;99.90;;;;;;4933767;29;20212;-69
2023/02/18 15:03:46;;;;;;;0.50;0.50;;;9.70;99.90;;;;;;4931948;29;20206;-69
2023/02/18 15:06:24;;;;;;;0.77;0.77;;;9.60;99.90;;;;;;4936635;29;20213;-68
2023/02/18 15:08:52;;;;;;;0.50;0.50;;;9.60;99.90;;;;;;4931732;29;20213;-68
2023/02/18 15:11:21;;;;;;;1.92;1.52;;;9.60;99.90;;;;;;4929242;29;20220;-68
2023/02/18 15:13:48;;;;;;;2.95;0.68;;;9.60;99.90;;;;;;4931919;29;20233;-68
2023/02/18 15:16:19;;;;;;;2.25;0.75;;;9.50;99.90;;;;;;4936005;29;20239;-68
2023/02/18 15:18:53;;;;;;;0.65;0.65;;;9.50;99.90;;;;;;4934620;29;20212;-68
2023/02/18 15:21:29;;;;;;;0.50;0.50;;;9.50;99.90;;;;;;4935613;29;20205;-69
2023/02/18 15:24:04;;;;;;;4.05;0.93;;;9.50;99.90;;;;;;4932767;29;20209;-69
2023/02/18 15:26:31;;;;;;;0.40;0.40;;;9.50;99.90;;;;;;4932493;29;20221;-69
2023/02/18 15:29:00;;;;;;;3.95;1.58;;;9.40;99.90;;;;;;4935099;29;20245;-68
2023/02/18 15:31:28;;;;;;;0.40;0.40;;;9.40;99.90;;;;;;4934654;29;20611;-69
2023/02/18 15:33:55;;;;;;;3.03;2.67;;;9.40;99.90;;;;;;4929724;29;20230;-68
2023/02/18 15:36:22;;;;;;;2.65;0.70;;;9.40;99.90;;;;;;4930699;29;20210;-68
2023/02/18 15:38:49;;;;;;;0.82;0.82;;;9.40;99.90;;;;;;4936582;29;20224;-68
2023/02/18 15:41:21;;;;;;;6.10;1.02;;;9.30;99.90;;;;;;4934154;29;20251;-69
2023/02/18 15:43:55;;;;;;;1.30;1.00;;;9.30;99.90;;;;;;4935571;29;20214;-69
2023/02/18 15:46:25;;;;;;;7.72;0.80;;;9.30;99.90;;;;;;4934970;29;20217;-68
2023/02/18 15:48:52;;;;;;;1.73;1.63;;;9.30;99.90;;;;;;4936188;29;20248;-67
2023/02/18 15:51:22;;;;;;;2.85;1.58;;;9.30;99.90;;;;;;4934808;29;20552;-68
2023/02/18 15:53:51;;;;;;;0.77;0.77;;;9.30;99.90;;;;;;4935999;29;20236;-69
2023/02/18 15:56:26;;;;;;;1.33;0.80;;;9.20;99.90;;;;;;4928426;29;20213;-68
2023/02/18 15:59:07;;;;;;;2.33;0.93;;;9.20;99.90;;;;;;4923032;29;20221;-67
2023/02/18 16:01:34;;;;;;;6.07;1.77;;;9.20;99.90;;;;;;4927600;29;20691;-68
2023/02/18 16:04:01;;;;;;;0.90;0.90;;;9.20;99.90;;;;;;4929483;29;20206;-67
2023/02/18 16:06:29;;;;;;;0.80;0.57;;;9.20;99.90;;;;;;4931927;29;20210;-67
2023/02/18 16:08:59;;;;;;;0.68;0.68;;;9.10;99.90;;;;;;4933335;29;20247;-67
2023/02/18 16:11:31;;;;;;;2.92;0.90;;;9.10;99.90;;;;;;4935945;29;20208;-68
2023/02/18 16:13:59;;;;;;;12.60;0.60;;;9.10;99.90;;;;;;4932871;29;20205;-68
2023/02/18 16:16:28;;;;;;;1.00;0.30;;;9.00;99.90;;;;;;4934033;29;20269;-68
2023/02/18 16:18:56;;;;;;;1.15;0.60;;;9.10;99.90;;;;;;4934024;29;20238;-67
2023/02/18 16:21:29;;;;;;;0.75;0.60;;;9.00;99.90;;;;;;4933773;29;20202;-68
2023/02/18 16:23:58;;;;;;;5.10;1.15;;;9.00;99.90;;;;;;4935888;29;20310;-68
2023/02/18 16:26:31;;;;;;;1.52;1.42;;;9.00;99.90;;;;;;4934880;29;20214;-67
2023/02/18 16:29:10;;;;;;;1.48;1.48;;;8.90;99.90;;;;;;4929418;29;20232;-68
2023/02/18 16:31:37;;;;;;;2.05;1.08;;;8.90;99.90;;;;;;4929077;29;20212;-68
2023/02/18 16:34:04;;;;;;;7.75;1.40;;;8.90;99.90;;;;;;4932059;29;20209;-68
2023/02/18 16:36:31;;;;;;;0.35;0.35;;;8.80;99.90;;;;;;4928673;29;20556;-67
2023/02/18 16:39:00;;;;;;;0.80;0.80;;;8.80;99.90;;;;;;4932163;29;20284;-68
2023/02/18 16:41:29;;;;;;;1.40;1.40;;;8.80;99.90;;;;;;4934570;29;20261;-69
2023/02/18 16:43:55;;;;;;;1.10;1.10;;;8.70;99.90;;;;;;4933127;29;20233;-69
2023/02/18 16:46:24;;;;;;;5.97;1.42;;;8.80;99.90;;;;;;4931944;29;20312;-68
2023/02/18 16:48:53;;;;;;;0.88;0.88;;;8.70;99.90;;;;;;4932710;29;20208;-68
2023/02/18 16:51:23;;;;;;;1.95;0.55;;;8.70;99.90;;;;;;4934285;29;20292;-69
2023/02/18 16:53:50;;;;;;;1.20;1.20;;;8.70;99.90;;;;;;4929260;29;20333;-68
2023/02/18 16:56:19;;;;;;;0.50;0.50;;;8.70;99.90;;;;;;4933921;29;20211;-68
2023/02/18 16:58:49;;;;;;;0.90;0.90;;;8.70;99.90;;;;;;4931922;29;20240;-68
2023/02/18 17:01:24;;;;;;;1.15;1.08;;;8.60;99.90;;;;;;4933550;29;20221;-68
2023/02/18 17:03:51;;;;;;;4.95;2.35;;;8.60;99.90;;;;;;4933095;29;20212;-68
2023/02/18 17:06:17;;;;;;;2.85;2.63;;;8.50;99.90;;;;;;4926586;29;20337;-68
2023/02/18 17:08:44;;;;;;;2.00;1.90;;;8.50;99.90;;;;;;4929759;29;20631;-68
2023/02/18 17:11:20;;;;;;;2.30;2.20;;;8.40;99.90;;;;;;4930958;29;20224;-68
2023/02/18 17:13:48;;;;;;;2.35;2.25;;;8.40;99.90;;;;;;4931423;29;20327;-68
2023/02/18 17:16:16;;;;;;;3.45;3.33;;;8.30;99.90;;;;;;4933436;29;20248;-68
2023/02/18 17:18:43;;;;;;;4.30;3.60;;;8.20;99.90;;;;;;4930911;29;20240;-67
2023/02/18 17:21:13;;;;;;;4.20;3.90;;;8.10;99.90;;;;;;4930062;29;20727;-67
2023/02/18 17:23:40;;;;;;;2.95;2.65;;;8.00;99.90;;;;;;4931770;29;20615;-67
2023/02/18 17:26:14;;;;;;;3.92;3.03;;;7.90;99.90;;;;;;4932375;29;20233;-67
2023/02/18 17:28:40;;;;;;;4.35;2.78;;;7.90;99.90;;;;;;4934067;29;20669;-67
2023/02/18 17:31:14;;;;;;;5.05;3.72;;;7.90;99.90;;;;;;4932361;29;20223;-67
2023/02/18 17:33:42;;;;;;;7.57;3.03;;;7.80;99.90;;;;;;4933285;29;20231;-67
2023/02/18 17:36:09;;;;;;;3.08;2.67;;;7.80;99.90;;;;;;4931659;29;20236;-67
2023/02/18 17:38:36;;;;;;;6.13;3.70;;;7.70;99.90;;;;;;4932926;29;20250;-67
2023/02/18 17:41:03;;;;;;;2.75;2.53;;;7.60;99.90;;;;;;4931874;29;20242;-67
2023/02/18 17:43:30;;;;;;;3.22;2.75;;;7.60;99.90;;;;;;4933150;29;20205;-67
2023/02/18 17:45:58;;;;;;;6.70;2.90;;;7.50;99.90;;;;;;4932092;29;20724;-67
2023/02/18 17:48:27;;;;;;;3.65;3.40;;;7.40;99.90;;;;;;4933064;29;20701;-68
2023/02/18 17:50:54;;;;;;;2.67;2.58;;;7.40;99.90;;;;;;4938762;29;20232;-68
2023/02/18 17:53:20;;;;;;;1.75;1.75;;;7.40;99.90;;;;;;4941280;29;20314;-68
2023/02/18 17:55:48;;;;;;;5.65;2.25;;;7.30;99.90;;;;;;4939723;29;20213;-68
2023/02/18 17:58:16;;;;;;;2.80;2.50;;;7.30;99.90;;;;;;4940533;29;20202;-67
2023/02/18 18:00:45;;;;;;;2.30;2.17;;;7.30;99.90;;;;;;4943257;29;20222;-68
2023/02/18 18:03:13;;;;;;;1.58;1.48;;;7.20;99.90;;;;;;4945132;29;20205;-68
2023/02/18 18:05:43;;;;;;;1.52;1.42;;;7.20;99.90;;;;;;4943091;29;20216;-67
2023/02/18 18:08:10;;;;;;;2.17;1.85;;;7.20;99.90;;;;;;4931863;29;20232;-67
2023/02/18 18:10:40;;;;;;;1.48;0.90;;;7.20;99.90;;;;;;4930068;29;20237;-68
2023/02/18 18:13:12;;;;;;;3.35;2.90;;;7.20;99.90;;;;;;4934606;29;20628;-68
2023/02/18 18:15:41;;;;;;;4.32;2.72;;;7.10;99.90;;;;;;4932800;29;20696;-69
2023/02/18 18:18:10;;;;;;;3.78;3.28;;;7.10;99.90;;;;;;4932699;29;20222;-68